sensor_id;sensor_type;location;lat;lon;timestamp;temperature;humidity
13496;DHT22;6820;49.374;8.452;2024-02-21T00:01:21;9.81;99.99
13496;DHT22;6820;49.374;8.452;2024-02-21T00:05:24;9.81;99.99
13496;DHT22;6820;49.374;8.452;2024-02-21T00:09:25;9.81;99.99
13496;DHT22;6820;49.374;8.452;2024-02-21T00:13:27;9.85;99.99
13496;DHT22;6820;49.374;8.452;2024-02-21T00:17:29;9.85;99.99
13496;DHT22;6820;49.374;8.452;2024-02-21T00:21:31;9.86;99.99
13496;DHT22;6820;49.374;8.452;2024-02-21T00:25:32;9.83;99.99
13496;DHT22;6820;49.374;8.452;2024-02-21T00:29:34;9.80;99.99
13496;DHT22;6820;49.374;8.452;2024-02-21T00:33:36;9.78;99.99
13496;DHT22;6820;49.374;8.452;2024-02-21T00:37:37;9.77;99.99
13496;DHT22;6820;49.374;8.452;2024-02-21T00:41:39;9.78;99.99
13496;DHT22;6820;49.374;8.452;2024-02-21T00:45:41;9.77;99.99
13496;DHT22;6820;49.374;8.452;2024-02-21T00:49:43;9.74;99.99
13496;DHT22;6820;49.374;8.452;2024-02-21T00:53:44;9.73;99.99
13496;DHT22;6820;49.374;8.452;2024-02-21T00:57:46;9.73;99.99
13496;DHT22;6820;49.374;8.452;2024-02-21T01:01:48;9.70;99.99
13496;DHT22;6820;49.374;8.452;2024-02-21T01:05:49;9.59;99.99
13496;DHT22;6820;49.374;8.452;2024-02-21T01:09:51;9.58;99.99
13496;DHT22;6820;49.374;8.452;2024-02-21T01:13:55;9.55;99.99
13496;DHT22;6820;49.374;8.452;2024-02-21T01:17:57;9.52;99.99
13496;DHT22;6820;49.374;8.452;2024-02-21T01:21:58;9.52;99.99
13496;DHT22;6820;49.374;8.452;2024-02-21T01:26:00;9.52;99.99
13496;DHT22;6820;49.374;8.452;2024-02-21T01:30:02;9.50;99.99
13496;DHT22;6820;49.374;8.452;2024-02-21T01:34:04;9.48;99.99
13496;DHT22;6820;49.374;8.452;2024-02-21T01:38:05;9.45;99.99
13496;DHT22;6820;49.374;8.452;2024-02-21T01:42:07;9.41;99.99
13496;DHT22;6820;49.374;8.452;2024-02-21T01:46:10;9.42;99.99
13496;DHT22;6820;49.374;8.452;2024-02-21T01:50:12;9.41;99.99
13496;DHT22;6820;49.374;8.452;2024-02-21T01:54:16;9.37;99.99
13496;DHT22;6820;49.374;8.452;2024-02-21T01:58:19;9.35;99.99
13496;DHT22;6820;49.374;8.452;2024-02-21T02:02:21;9.35;99.99
13496;DHT22;6820;49.374;8.452;2024-02-21T02:06:23;9.32;99.99
13496;DHT22;6820;49.374;8.452;2024-02-21T02:10:25;9.30;99.99
13496;DHT22;6820;49.374;8.452;2024-02-21T02:14:28;9.30;99.99
13496;DHT22;6820;49.374;8.452;2024-02-21T02:18:29;9.27;99.99
13496;DHT22;6820;49.374;8.452;2024-02-21T02:22:32;9.26;99.99
13496;DHT22;6820;49.374;8.452;2024-02-21T02:26:38;9.23;99.99
13496;DHT22;6820;49.374;8.452;2024-02-21T02:30:40;9.20;99.99
13496;DHT22;6820;49.374;8.452;2024-02-21T02:34:41;9.19;99.99
13496;DHT22;6820;49.374;8.452;2024-02-21T02:38:43;9.16;99.99
13496;DHT22;6820;49.374;8.452;2024-02-21T02:42:45;9.15;99.99
13496;DHT22;6820;49.374;8.452;2024-02-21T02:46:46;9.13;99.99
13496;DHT22;6820;49.374;8.452;2024-02-21T02:50:48;9.10;99.99
13496;DHT22;6820;49.374;8.452;2024-02-21T02:54:50;9.08;99.99
13496;DHT22;6820;49.374;8.452;2024-02-21T02:58:53;9.06;99.99
13496;DHT22;6820;49.374;8.452;2024-02-21T03:02:55;9.00;99.99
13496;DHT22;6820;49.374;8.452;2024-02-21T03:06:56;8.94;99.99
13496;DHT22;6820;49.374;8.452;2024-02-21T03:10:58;8.91;99.99
13496;DHT22;6820;49.374;8.452;2024-02-21T03:15:01;8.89;99.99
13496;DHT22;6820;49.374;8.452;2024-02-21T03:19:03;8.89;99.99
13496;DHT22;6820;49.374;8.452;2024-02-21T03:23:04;8.91;99.99
13496;DHT22;6820;49.374;8.452;2024-02-21T03:27:06;8.89;99.99
13496;DHT22;6820;49.374;8.452;2024-02-21T03:31:08;8.88;99.99
13496;DHT22;6820;49.374;8.452;2024-02-21T03:35:10;8.83;99.99
13496;DHT22;6820;49.374;8.452;2024-02-21T03:39:11;8.82;99.99
13496;DHT22;6820;49.374;8.452;2024-02-21T03:43:13;8.80;99.99
13496;DHT22;6820;49.374;8.452;2024-02-21T03:47:15;8.80;99.99
13496;DHT22;6820;49.374;8.452;2024-02-21T03:51:16;8.79;99.99
13496;DHT22;6820;49.374;8.452;2024-02-21T03:55:18;8.73;99.99
13496;DHT22;6820;49.374;8.452;2024-02-21T03:59:20;8.70;99.99
13496;DHT22;6820;49.374;8.452;2024-02-21T04:03:22;8.64;99.99
13496;DHT22;6820;49.374;8.452;2024-02-21T04:07:23;8.63;99.99
13496;DHT22;6820;49.374;8.452;2024-02-21T04:11:25;8.58;99.99
13496;DHT22;6820;49.374;8.452;2024-02-21T04:15:27;8.54;99.99
13496;DHT22;6820;49.374;8.452;2024-02-21T04:19:28;8.49;99.99
13496;DHT22;6820;49.374;8.452;2024-02-21T04:23:32;8.45;99.99
13496;DHT22;6820;49.374;8.452;2024-02-21T04:27:34;8.40;99.99
13496;DHT22;6820;49.374;8.452;2024-02-21T04:31:35;8.37;99.99
13496;DHT22;6820;49.374;8.452;2024-02-21T04:35:37;8.32;99.99
13496;DHT22;6820;49.374;8.452;2024-02-21T04:39:39;8.29;99.99
13496;DHT22;6820;49.374;8.452;2024-02-21T04:43:41;8.25;99.99
13496;DHT22;6820;49.374;8.452;2024-02-21T04:47:43;8.22;99.99
13496;DHT22;6820;49.374;8.452;2024-02-21T04:51:45;8.22;99.99
13496;DHT22;6820;49.374;8.452;2024-02-21T04:55:46;8.20;99.99
13496;DHT22;6820;49.374;8.452;2024-02-21T04:59:48;8.20;99.99
13496;DHT22;6820;49.374;8.452;2024-02-21T05:03:50;8.17;99.99
13496;DHT22;6820;49.374;8.452;2024-02-21T05:07:51;8.13;99.99
13496;DHT22;6820;49.374;8.452;2024-02-21T05:11:53;8.12;99.99
13496;DHT22;6820;49.374;8.452;2024-02-21T05:16:01;8.12;99.99
13496;DHT22;6820;49.374;8.452;2024-02-21T05:20:04;8.10;99.99
13496;DHT22;6820;49.374;8.452;2024-02-21T05:24:07;8.07;99.99
13496;DHT22;6820;49.374;8.452;2024-02-21T05:28:09;8.06;99.99
13496;DHT22;6820;49.374;8.452;2024-02-21T05:32:10;8.04;99.99
13496;DHT22;6820;49.374;8.452;2024-02-21T05:36:12;8.02;99.99
13496;DHT22;6820;49.374;8.452;2024-02-21T05:40:14;7.95;99.99
13496;DHT22;6820;49.374;8.452;2024-02-21T05:44:16;7.95;99.99
13496;DHT22;6820;49.374;8.452;2024-02-21T05:48:19;7.92;99.99
13496;DHT22;6820;49.374;8.452;2024-02-21T05:52:21;7.89;99.99
13496;DHT22;6820;49.374;8.452;2024-02-21T05:56:23;7.89;99.99
13496;DHT22;6820;49.374;8.452;2024-02-21T06:00:25;7.88;99.99
13496;DHT22;6820;49.374;8.452;2024-02-21T06:04:26;7.85;99.99
13496;DHT22;6820;49.374;8.452;2024-02-21T06:08:28;7.84;99.99
13496;DHT22;6820;49.374;8.452;2024-02-21T06:12:30;7.79;99.99
13496;DHT22;6820;49.374;8.452;2024-02-21T06:16:31;7.79;99.99
13496;DHT22;6820;49.374;8.452;2024-02-21T06:20:33;7.74;99.99
13496;DHT22;6820;49.374;8.452;2024-02-21T06:24:38;7.74;99.99
13496;DHT22;6820;49.374;8.452;2024-02-21T06:28:39;7.71;99.99
13496;DHT22;6820;49.374;8.452;2024-02-21T06:32:41;7.71;99.99
13496;DHT22;6820;49.374;8.452;2024-02-21T06:36:44;7.73;99.99
13496;DHT22;6820;49.374;8.452;2024-02-21T06:40:46;7.71;99.99
13496;DHT22;6820;49.374;8.452;2024-02-21T06:44:51;7.71;99.99
13496;DHT22;6820;49.374;8.452;2024-02-21T06:48:53;7.73;99.99
13496;DHT22;6820;49.374;8.452;2024-02-21T06:52:55;7.74;99.99
13496;DHT22;6820;49.374;8.452;2024-02-21T06:56:57;7.74;99.99
13496;DHT22;6820;49.374;8.452;2024-02-21T07:00:58;7.74;99.99
13496;DHT22;6820;49.374;8.452;2024-02-21T07:05:00;7.77;99.99
13496;DHT22;6820;49.374;8.452;2024-02-21T07:09:03;7.82;99.99
13496;DHT22;6820;49.374;8.452;2024-02-21T07:13:05;7.82;99.99
13496;DHT22;6820;49.374;8.452;2024-02-21T07:17:06;7.86;99.99
13496;DHT22;6820;49.374;8.452;2024-02-21T07:21:08;7.88;99.99
13496;DHT22;6820;49.374;8.452;2024-02-21T07:25:10;7.89;99.99
13496;DHT22;6820;49.374;8.452;2024-02-21T07:29:11;7.92;99.99
13496;DHT22;6820;49.374;8.452;2024-02-21T07:33:13;7.99;99.99
13496;DHT22;6820;49.374;8.452;2024-02-21T07:37:15;8.03;99.99
13496;DHT22;6820;49.374;8.452;2024-02-21T07:41:17;8.09;99.99
13496;DHT22;6820;49.374;8.452;2024-02-21T07:45:19;8.17;99.99
13496;DHT22;6820;49.374;8.452;2024-02-21T07:49:23;8.21;99.99
13496;DHT22;6820;49.374;8.452;2024-02-21T07:53:26;8.27;99.99
13496;DHT22;6820;49.374;8.452;2024-02-21T07:57:27;8.34;99.99
13496;DHT22;6820;49.374;8.452;2024-02-21T08:01:29;8.39;99.99
13496;DHT22;6820;49.374;8.452;2024-02-21T08:05:33;8.45;99.99
13496;DHT22;6820;49.374;8.452;2024-02-21T08:09:36;8.55;99.99
13496;DHT22;6820;49.374;8.452;2024-02-21T08:13:39;8.58;99.99
13496;DHT22;6820;49.374;8.452;2024-02-21T08:17:40;8.65;99.99
13496;DHT22;6820;49.374;8.452;2024-02-21T08:21:42;8.73;99.99
13496;DHT22;6820;49.374;8.452;2024-02-21T08:25:44;8.78;99.99
13496;DHT22;6820;49.374;8.452;2024-02-21T08:29:46;8.80;99.99
13496;DHT22;6820;49.374;8.452;2024-02-21T08:33:47;8.88;99.99
13496;DHT22;6820;49.374;8.452;2024-02-21T08:37:49;8.94;99.99
13496;DHT22;6820;49.374;8.452;2024-02-21T08:41:51;8.93;99.99
13496;DHT22;6820;49.374;8.452;2024-02-21T08:45:58;8.96;99.99
13496;DHT22;6820;49.374;8.452;2024-02-21T08:49:59;8.96;99.99
13496;DHT22;6820;49.374;8.452;2024-02-21T08:54:15;9.04;99.99
13496;DHT22;6820;49.374;8.452;2024-02-21T08:58:18;9.08;99.99
13496;DHT22;6820;49.374;8.452;2024-02-21T09:02:22;9.15;99.99
13496;DHT22;6820;49.374;8.452;2024-02-21T09:06:24;9.23;99.99
13496;DHT22;6820;49.374;8.452;2024-02-21T09:10:26;9.31;99.99
13496;DHT22;6820;49.374;8.452;2024-02-21T09:14:28;9.41;99.99
13496;DHT22;6820;49.374;8.452;2024-02-21T09:18:29;9.53;99.99
13496;DHT22;6820;49.374;8.452;2024-02-21T09:22:31;9.62;99.99
13496;DHT22;6820;49.374;8.452;2024-02-21T09:26:36;9.74;99.99
13496;DHT22;6820;49.374;8.452;2024-02-21T09:30:37;9.91;99.99
13496;DHT22;6820;49.374;8.452;2024-02-21T09:34:39;9.99;99.99
13496;DHT22;6820;49.374;8.452;2024-02-21T09:38:41;10.10;99.99
13496;DHT22;6820;49.374;8.452;2024-02-21T09:42:43;10.16;99.99
13496;DHT22;6820;49.374;8.452;2024-02-21T09:50:57;10.28;99.99
13496;DHT22;6820;49.374;8.452;2024-02-21T09:54:59;10.34;99.99
13496;DHT22;6820;49.374;8.452;2024-02-21T09:59:03;10.44;99.99
13496;DHT22;6820;49.374;8.452;2024-02-21T10:03:08;10.55;99.99
13496;DHT22;6820;49.374;8.452;2024-02-21T10:07:10;10.68;99.99
13496;DHT22;6820;49.374;8.452;2024-02-21T10:11:21;10.81;99.99
13496;DHT22;6820;49.374;8.452;2024-02-21T10:15:24;10.90;99.99
13496;DHT22;6820;49.374;8.452;2024-02-21T10:19:26;10.98;99.99
13496;DHT22;6820;49.374;8.452;2024-02-21T10:23:28;11.06;99.99
13496;DHT22;6820;49.374;8.452;2024-02-21T10:27:30;11.20;99.99
13496;DHT22;6820;49.374;8.452;2024-02-21T10:31:32;11.24;99.99
13496;DHT22;6820;49.374;8.452;2024-02-21T10:35:34;11.33;99.99
13496;DHT22;6820;49.374;8.452;2024-02-21T10:39:39;11.42;99.99
13496;DHT22;6820;49.374;8.452;2024-02-21T10:43:43;11.53;99.99
13496;DHT22;6820;49.374;8.452;2024-02-21T10:47:51;11.53;99.99
13496;DHT22;6820;49.374;8.452;2024-02-21T10:52:22;11.60;99.99
13496;DHT22;6820;49.374;8.452;2024-02-21T10:56:30;11.70;99.99
13496;DHT22;6820;49.374;8.452;2024-02-21T11:00:38;11.70;99.99
13496;DHT22;6820;49.374;8.452;2024-02-21T11:04:41;11.81;99.99
13496;DHT22;6820;49.374;8.452;2024-02-21T11:08:43;11.98;99.99
13496;DHT22;6820;49.374;8.452;2024-02-21T11:12:45;12.11;99.99
13496;DHT22;6820;49.374;8.452;2024-02-21T11:16:47;12.26;99.99
13496;DHT22;6820;49.374;8.452;2024-02-21T11:20:49;12.33;99.99
13496;DHT22;6820;49.374;8.452;2024-02-21T11:24:52;12.46;99.99
13496;DHT22;6820;49.374;8.452;2024-02-21T11:28:58;12.49;99.99
13496;DHT22;6820;49.374;8.452;2024-02-21T11:33:06;12.40;99.99
13496;DHT22;6820;49.374;8.452;2024-02-21T11:37:14;12.41;99.99
13496;DHT22;6820;49.374;8.452;2024-02-21T11:41:17;12.36;99.99
13496;DHT22;6820;49.374;8.452;2024-02-21T11:45:18;12.31;99.99
13496;DHT22;6820;49.374;8.452;2024-02-21T11:49:24;12.30;99.99
13496;DHT22;6820;49.374;8.452;2024-02-21T11:53:28;12.29;99.99
13496;DHT22;6820;49.374;8.452;2024-02-21T11:57:37;12.31;99.99
13496;DHT22;6820;49.374;8.452;2024-02-21T12:01:44;12.34;99.99
13496;DHT22;6820;49.374;8.452;2024-02-21T12:05:46;12.38;99.99
13496;DHT22;6820;49.374;8.452;2024-02-21T12:09:48;12.34;99.99
13496;DHT22;6820;49.374;8.452;2024-02-21T12:14:02;12.37;99.99
13496;DHT22;6820;49.374;8.452;2024-02-21T12:18:06;12.33;99.99
13496;DHT22;6820;49.374;8.452;2024-02-21T12:22:08;12.36;99.99
13496;DHT22;6820;49.374;8.452;2024-02-21T12:26:10;12.37;99.99
13496;DHT22;6820;49.374;8.452;2024-02-21T12:30:12;12.43;99.99
13496;DHT22;6820;49.374;8.452;2024-02-21T12:34:14;12.49;99.99
13496;DHT22;6820;49.374;8.452;2024-02-21T12:38:20;12.56;99.99
13496;DHT22;6820;49.374;8.452;2024-02-21T12:42:22;12.61;99.99
13496;DHT22;6820;49.374;8.452;2024-02-21T12:46:25;12.61;99.99
13496;DHT22;6820;49.374;8.452;2024-02-21T12:50:26;12.61;99.99
13496;DHT22;6820;49.374;8.452;2024-02-21T12:54:28;12.59;99.99
13496;DHT22;6820;49.374;8.452;2024-02-21T12:58:31;12.59;99.99
13496;DHT22;6820;49.374;8.452;2024-02-21T13:02:33;12.58;99.99
13496;DHT22;6820;49.374;8.452;2024-02-21T13:06:35;12.62;99.99
13496;DHT22;6820;49.374;8.452;2024-02-21T13:10:38;12.61;99.99
13496;DHT22;6820;49.374;8.452;2024-02-21T13:14:39;12.59;99.99
13496;DHT22;6820;49.374;8.452;2024-02-21T13:18:44;12.63;99.99
13496;DHT22;6820;49.374;8.452;2024-02-21T13:22:48;12.66;99.99
13496;DHT22;6820;49.374;8.452;2024-02-21T13:26:50;12.70;99.99
13496;DHT22;6820;49.374;8.452;2024-02-21T13:30:52;12.69;99.99
13496;DHT22;6820;49.374;8.452;2024-02-21T13:34:54;12.67;99.99
13496;DHT22;6820;49.374;8.452;2024-02-21T13:38:56;12.61;99.99
13496;DHT22;6820;49.374;8.452;2024-02-21T13:42:57;12.59;99.99
13496;DHT22;6820;49.374;8.452;2024-02-21T13:46:59;12.56;99.99
13496;DHT22;6820;49.374;8.452;2024-02-21T13:51:01;12.56;99.99
13496;DHT22;6820;49.374;8.452;2024-02-21T13:55:06;12.55;99.99
13496;DHT22;6820;49.374;8.452;2024-02-21T13:59:11;12.58;99.99
13496;DHT22;6820;49.374;8.452;2024-02-21T14:03:15;12.66;99.99
13496;DHT22;6820;49.374;8.452;2024-02-21T14:07:16;12.70;99.99
13496;DHT22;6820;49.374;8.452;2024-02-21T14:11:18;12.70;99.99
13496;DHT22;6820;49.374;8.452;2024-02-21T14:15:21;12.63;99.99
13496;DHT22;6820;49.374;8.452;2024-02-21T14:19:23;12.61;99.99
13496;DHT22;6820;49.374;8.452;2024-02-21T14:23:29;12.61;99.99
13496;DHT22;6820;49.374;8.452;2024-02-21T14:27:31;12.58;99.99
13496;DHT22;6820;49.374;8.452;2024-02-21T14:31:33;12.52;99.99
13496;DHT22;6820;49.374;8.452;2024-02-21T14:35:35;12.49;99.99
13496;DHT22;6820;49.374;8.452;2024-02-21T14:39:37;12.49;99.99
13496;DHT22;6820;49.374;8.452;2024-02-21T14:43:38;12.49;99.99
13496;DHT22;6820;49.374;8.452;2024-02-21T14:47:40;12.52;99.99
13496;DHT22;6820;49.374;8.452;2024-02-21T14:51:42;12.54;99.99
13496;DHT22;6820;49.374;8.452;2024-02-21T14:55:44;12.55;99.99
13496;DHT22;6820;49.374;8.452;2024-02-21T14:59:46;12.51;99.99
13496;DHT22;6820;49.374;8.452;2024-02-21T15:03:49;12.46;99.99
13496;DHT22;6820;49.374;8.452;2024-02-21T15:07:51;12.44;99.99
13496;DHT22;6820;49.374;8.452;2024-02-21T15:11:53;12.43;99.99
13496;DHT22;6820;49.374;8.452;2024-02-21T15:15:55;12.41;99.99
13496;DHT22;6820;49.374;8.452;2024-02-21T15:19:57;12.31;99.99
13496;DHT22;6820;49.374;8.452;2024-02-21T15:24:01;12.26;99.99
13496;DHT22;6820;49.374;8.452;2024-02-21T15:28:04;12.21;99.99
13496;DHT22;6820;49.374;8.452;2024-02-21T15:32:07;12.13;99.99
13496;DHT22;6820;49.374;8.452;2024-02-21T15:36:09;12.07;99.99
13496;DHT22;6820;49.374;8.452;2024-02-21T15:40:11;12.05;99.99
13496;DHT22;6820;49.374;8.452;2024-02-21T15:44:12;12.03;99.99
13496;DHT22;6820;49.374;8.452;2024-02-21T15:48:14;12.00;99.99
13496;DHT22;6820;49.374;8.452;2024-02-21T15:52:16;11.98;99.99
13496;DHT22;6820;49.374;8.452;2024-02-21T15:56:17;11.90;99.99
13496;DHT22;6820;49.374;8.452;2024-02-21T16:00:19;11.88;99.99
13496;DHT22;6820;49.374;8.452;2024-02-21T16:04:23;11.84;99.99
13496;DHT22;6820;49.374;8.452;2024-02-21T16:08:25;11.79;99.99
13496;DHT22;6820;49.374;8.452;2024-02-21T16:12:27;11.78;99.99
13496;DHT22;6820;49.374;8.452;2024-02-21T16:16:30;11.72;99.99
13496;DHT22;6820;49.374;8.452;2024-02-21T16:20:32;11.70;99.99
13496;DHT22;6820;49.374;8.452;2024-02-21T16:24:34;11.66;99.99
13496;DHT22;6820;49.374;8.452;2024-02-21T16:28:36;11.59;99.99
13496;DHT22;6820;49.374;8.452;2024-02-21T16:32:39;11.56;99.99
13496;DHT22;6820;49.374;8.452;2024-02-21T16:36:44;11.53;99.99
13496;DHT22;6820;49.374;8.452;2024-02-21T16:40:46;11.46;99.99
13496;DHT22;6820;49.374;8.452;2024-02-21T16:44:49;11.44;99.99
13496;DHT22;6820;49.374;8.452;2024-02-21T16:48:51;11.41;99.99
13496;DHT22;6820;49.374;8.452;2024-02-21T16:52:53;11.36;99.99
13496;DHT22;6820;49.374;8.452;2024-02-21T16:56:55;11.33;99.99
13496;DHT22;6820;49.374;8.452;2024-02-21T17:00:56;11.30;99.99
13496;DHT22;6820;49.374;8.452;2024-02-21T17:05:01;11.28;99.99
13496;DHT22;6820;49.374;8.452;2024-02-21T17:09:04;11.24;99.99
13496;DHT22;6820;49.374;8.452;2024-02-21T17:13:06;11.21;99.99
13496;DHT22;6820;49.374;8.452;2024-02-21T17:17:07;11.20;99.99
13496;DHT22;6820;49.374;8.452;2024-02-21T17:21:09;11.17;99.99
13496;DHT22;6820;49.374;8.452;2024-02-21T17:25:11;11.16;99.99
13496;DHT22;6820;49.374;8.452;2024-02-21T17:29:13;11.09;99.99
13496;DHT22;6820;49.374;8.452;2024-02-21T17:33:15;11.09;99.99
13496;DHT22;6820;49.374;8.452;2024-02-21T17:37:17;11.06;99.99
13496;DHT22;6820;49.374;8.452;2024-02-21T17:41:19;11.06;99.99
13496;DHT22;6820;49.374;8.452;2024-02-21T17:45:20;11.05;99.99
13496;DHT22;6820;49.374;8.452;2024-02-21T17:49:22;11.02;99.99
13496;DHT22;6820;49.374;8.452;2024-02-21T17:53:24;11.01;99.99
13496;DHT22;6820;49.374;8.452;2024-02-21T17:57:26;10.98;99.99
13496;DHT22;6820;49.374;8.452;2024-02-21T18:01:28;10.95;99.99
13496;DHT22;6820;49.374;8.452;2024-02-21T18:05:31;10.94;99.99
13496;DHT22;6820;49.374;8.452;2024-02-21T18:09:33;10.98;99.99
13496;DHT22;6820;49.374;8.452;2024-02-21T18:13:35;10.95;99.99
13496;DHT22;6820;49.374;8.452;2024-02-21T18:17:37;10.94;99.99
13496;DHT22;6820;49.374;8.452;2024-02-21T18:21:39;10.90;99.99
13496;DHT22;6820;49.374;8.452;2024-02-21T18:25:47;10.88;99.99
13496;DHT22;6820;49.374;8.452;2024-02-21T18:29:50;10.87;99.99
13496;DHT22;6820;49.374;8.452;2024-02-21T18:33:52;10.84;99.99
13496;DHT22;6820;49.374;8.452;2024-02-21T18:37:54;10.83;99.99
13496;DHT22;6820;49.374;8.452;2024-02-21T18:41:56;10.84;99.99
13496;DHT22;6820;49.374;8.452;2024-02-21T18:45:58;10.83;99.99
13496;DHT22;6820;49.374;8.452;2024-02-21T18:50:00;10.83;99.99
13496;DHT22;6820;49.374;8.452;2024-02-21T18:54:03;10.81;99.99
13496;DHT22;6820;49.374;8.452;2024-02-21T18:58:04;10.84;99.99
13496;DHT22;6820;49.374;8.452;2024-02-21T19:02:06;10.84;99.99
13496;DHT22;6820;49.374;8.452;2024-02-21T19:06:08;10.86;99.99
13496;DHT22;6820;49.374;8.452;2024-02-21T19:10:10;10.83;99.99
13496;DHT22;6820;49.374;8.452;2024-02-21T19:14:13;10.84;99.99
13496;DHT22;6820;49.374;8.452;2024-02-21T19:18:15;10.84;99.99
13496;DHT22;6820;49.374;8.452;2024-02-21T19:22:16;10.84;99.99
13496;DHT22;6820;49.374;8.452;2024-02-21T19:26:18;10.84;99.99
13496;DHT22;6820;49.374;8.452;2024-02-21T19:30:20;10.84;99.99
13496;DHT22;6820;49.374;8.452;2024-02-21T19:34:27;10.84;99.99
13496;DHT22;6820;49.374;8.452;2024-02-21T19:38:29;10.84;99.99
13496;DHT22;6820;49.374;8.452;2024-02-21T19:42:31;10.84;99.99
13496;DHT22;6820;49.374;8.452;2024-02-21T19:46:32;10.83;99.99
13496;DHT22;6820;49.374;8.452;2024-02-21T19:50:37;10.81;99.99
13496;DHT22;6820;49.374;8.452;2024-02-21T19:54:40;10.83;99.99
13496;DHT22;6820;49.374;8.452;2024-02-21T19:58:41;10.81;99.99
13496;DHT22;6820;49.374;8.452;2024-02-21T20:02:43;10.80;99.99
13496;DHT22;6820;49.374;8.452;2024-02-21T20:06:45;10.80;99.99
13496;DHT22;6820;49.374;8.452;2024-02-21T20:10:47;10.78;99.99
13496;DHT22;6820;49.374;8.452;2024-02-21T20:14:50;10.76;99.99
13496;DHT22;6820;49.374;8.452;2024-02-21T20:18:52;10.76;99.99
13496;DHT22;6820;49.374;8.452;2024-02-21T20:22:53;10.76;99.99
13496;DHT22;6820;49.374;8.452;2024-02-21T20:26:58;10.78;99.99
13496;DHT22;6820;49.374;8.452;2024-02-21T20:31:00;10.76;99.99
13496;DHT22;6820;49.374;8.452;2024-02-21T20:35:01;10.76;99.99
13496;DHT22;6820;49.374;8.452;2024-02-21T20:39:10;10.78;99.99
13496;DHT22;6820;49.374;8.452;2024-02-21T20:43:12;10.78;99.99
13496;DHT22;6820;49.374;8.452;2024-02-21T20:47:14;10.76;99.99
13496;DHT22;6820;49.374;8.452;2024-02-21T20:51:16;10.80;99.99
13496;DHT22;6820;49.374;8.452;2024-02-21T20:55:17;10.81;99.99
13496;DHT22;6820;49.374;8.452;2024-02-21T20:59:25;10.78;99.99
13496;DHT22;6820;49.374;8.452;2024-02-21T21:03:27;10.78;99.99
13496;DHT22;6820;49.374;8.452;2024-02-21T21:07:32;10.76;99.99
13496;DHT22;6820;49.374;8.452;2024-02-21T21:11:37;10.75;99.99
13496;DHT22;6820;49.374;8.452;2024-02-21T21:15:47;10.72;99.99
13496;DHT22;6820;49.374;8.452;2024-02-21T21:19:49;10.69;99.99
13496;DHT22;6820;49.374;8.452;2024-02-21T21:23:52;10.70;99.99
13496;DHT22;6820;49.374;8.452;2024-02-21T21:27:53;10.72;99.99
13496;DHT22;6820;49.374;8.452;2024-02-21T21:31:55;10.75;99.99
13496;DHT22;6820;49.374;8.452;2024-02-21T21:35:57;10.83;99.99
13496;DHT22;6820;49.374;8.452;2024-02-21T21:39:58;10.90;99.99
13496;DHT22;6820;49.374;8.452;2024-02-21T21:44:00;10.95;99.99
13496;DHT22;6820;49.374;8.452;2024-02-21T21:48:02;10.99;99.99
13496;DHT22;6820;49.374;8.452;2024-02-21T21:52:04;10.99;99.99
13496;DHT22;6820;49.374;8.452;2024-02-21T21:56:06;10.99;99.99
13496;DHT22;6820;49.374;8.452;2024-02-21T22:00:08;10.95;99.99
13496;DHT22;6820;49.374;8.452;2024-02-21T22:04:14;10.95;99.99
13496;DHT22;6820;49.374;8.452;2024-02-21T22:08:16;10.93;99.99
13496;DHT22;6820;49.374;8.452;2024-02-21T22:12:17;10.93;99.99
13496;DHT22;6820;49.374;8.452;2024-02-21T22:16:19;10.94;99.99
13496;DHT22;6820;49.374;8.452;2024-02-21T22:20:21;10.94;99.99
13496;DHT22;6820;49.374;8.452;2024-02-21T22:24:26;10.98;99.99
13496;DHT22;6820;49.374;8.452;2024-02-21T22:28:28;10.98;99.99
13496;DHT22;6820;49.374;8.452;2024-02-21T22:32:29;10.98;99.99
13496;DHT22;6820;49.374;8.452;2024-02-21T22:36:31;10.99;99.99
13496;DHT22;6820;49.374;8.452;2024-02-21T22:40:33;11.01;99.99
13496;DHT22;6820;49.374;8.452;2024-02-21T22:44:39;10.98;99.99
13496;DHT22;6820;49.374;8.452;2024-02-21T22:48:44;10.94;99.99
13496;DHT22;6820;49.374;8.452;2024-02-21T22:52:47;10.93;99.99
13496;DHT22;6820;49.374;8.452;2024-02-21T22:56:50;10.88;99.99
13496;DHT22;6820;49.374;8.452;2024-02-21T23:00:52;10.87;99.99
13496;DHT22;6820;49.374;8.452;2024-02-21T23:04:54;10.83;99.99
13496;DHT22;6820;49.374;8.452;2024-02-21T23:08:55;10.78;99.99
13496;DHT22;6820;49.374;8.452;2024-02-21T23:12:59;10.75;99.99
13496;DHT22;6820;49.374;8.452;2024-02-21T23:17:02;10.73;99.99
13496;DHT22;6820;49.374;8.452;2024-02-21T23:21:04;10.70;99.99
13496;DHT22;6820;49.374;8.452;2024-02-21T23:25:09;10.69;99.99
13496;DHT22;6820;49.374;8.452;2024-02-21T23:29:12;10.70;99.99
13496;DHT22;6820;49.374;8.452;2024-02-21T23:33:13;10.68;99.99
13496;DHT22;6820;49.374;8.452;2024-02-21T23:37:15;10.69;99.99
13496;DHT22;6820;49.374;8.452;2024-02-21T23:41:17;10.66;99.99
13496;DHT22;6820;49.374;8.452;2024-02-21T23:45:19;10.66;99.99
13496;DHT22;6820;49.374;8.452;2024-02-21T23:49:20;10.66;99.99
13496;DHT22;6820;49.374;8.452;2024-02-21T23:53:24;10.65;99.99
13496;DHT22;6820;49.374;8.452;2024-02-21T23:57:26;10.66;99.99
